createdAt,value
2022-09-15T00:01:28.888Z,43.80
2022-09-15T00:04:14.369Z,35.47
2022-09-15T00:06:59.713Z,44.95
2022-09-15T00:09:45.034Z,30.77
2022-09-15T00:12:29.971Z,48.92
2022-09-15T00:15:15.299Z,36.75
2022-09-15T00:18:00.626Z,55.33
2022-09-15T00:20:46.150Z,35.33
2022-09-15T00:23:31.251Z,45.20
2022-09-15T00:26:19.470Z,40.63
2022-09-15T00:29:05.468Z,43.30
2022-09-15T00:31:50.832Z,45.83
2022-09-15T00:34:36.101Z,45.13
2022-09-15T00:37:21.069Z,49.53
2022-09-15T00:40:06.538Z,53.00
2022-09-15T00:42:51.483Z,47.40
2022-09-15T00:45:36.279Z,55.35
2022-09-15T00:48:22.772Z,44.70
2022-09-15T00:51:10.075Z,47.80
2022-09-15T00:53:56.578Z,77.50
2022-09-15T00:56:43.929Z,73.20
2022-09-15T00:59:33.179Z,44.30
2022-09-15T01:02:24.351Z,53.60
2022-09-15T01:05:13.589Z,37.10
2022-09-15T01:08:03.444Z,45.70
2022-09-15T01:10:48.363Z,53.53
2022-09-15T01:13:33.191Z,47.42
2022-09-15T01:16:25.814Z,41.92
2022-09-15T01:19:20.438Z,50.10
2022-09-15T01:22:15.565Z,39.22
2022-09-15T01:25:12.769Z,34.95
2022-09-15T01:28:12.120Z,41.45
2022-09-15T01:31:02.809Z,43.45
2022-09-15T01:33:51.562Z,30.05
2022-09-15T01:36:52.967Z,39.55
2022-09-15T01:39:43.450Z,34.60
2022-09-15T01:42:30.985Z,41.97
2022-09-15T01:45:23.870Z,35.88
2022-09-15T01:48:09.384Z,36.72
2022-09-15T01:50:59.406Z,24.50
2022-09-15T01:53:46.099Z,31.48
2022-09-15T01:56:31.314Z,46.92
2022-09-15T01:59:16.395Z,32.97
2022-09-15T02:02:09.588Z,31.98
2022-09-15T02:05:08.009Z,36.80
2022-09-15T02:08:01.639Z,26.30
2022-09-15T02:10:53.084Z,27.20
2022-09-15T02:14:04.326Z,59.75
2022-09-15T02:16:53.986Z,44.63
2022-09-15T02:19:43.400Z,37.00
2022-09-15T02:22:33.257Z,38.58
2022-09-15T02:25:24.241Z,54.20
2022-09-15T02:28:11.648Z,48.95
2022-09-15T02:30:59.256Z,53.83
2022-09-15T02:33:49.485Z,40.67
2022-09-15T02:36:34.969Z,52.00
2022-09-15T02:39:23.013Z,85.88
2022-09-15T02:42:08.118Z,60.53
2022-09-15T02:44:53.657Z,59.30
2022-09-15T02:47:38.843Z,45.75
2022-09-15T02:50:24.758Z,71.50
2022-09-15T02:53:09.629Z,55.90
2022-09-15T02:55:54.431Z,224.82
2022-09-15T02:58:39.458Z,469.85
2022-09-15T03:01:28.793Z,325.25
2022-09-15T03:04:14.020Z,383.25
2022-09-15T03:06:58.861Z,572.97
2022-09-15T03:09:44.457Z,315.10
2022-09-15T03:12:30.001Z,363.63
2022-09-15T03:15:17.595Z,385.40
2022-09-15T03:18:02.848Z,754.38
2022-09-15T03:20:48.078Z,781.60
2022-09-15T03:23:33.851Z,526.65
2022-09-15T03:26:19.225Z,480.02
2022-09-15T03:29:04.716Z,408.77
2022-09-15T03:31:49.554Z,479.67
2022-09-15T03:34:35.138Z,437.20
2022-09-15T03:37:19.999Z,378.95
2022-09-15T03:40:05.570Z,423.70
2022-09-15T03:42:50.594Z,104.65
2022-09-15T03:45:36.093Z,745.58
2022-09-15T03:48:22.713Z,245.98
2022-09-15T03:51:09.382Z,158.18
2022-09-15T03:53:55.618Z,85.40
2022-09-15T03:56:40.950Z,197.23
2022-09-15T03:59:25.865Z,97.40
2022-09-15T04:02:10.950Z,145.55
2022-09-15T04:04:56.232Z,141.05
2022-09-15T04:07:41.500Z,83.38
2022-09-15T04:10:26.780Z,176.15
2022-09-15T04:13:12.019Z,116.78
2022-09-15T04:16:05.750Z,119.00
2022-09-15T04:18:51.979Z,106.78
2022-09-15T04:21:36.934Z,102.25
2022-09-15T04:24:22.167Z,108.50
2022-09-15T04:27:07.137Z,103.40
2022-09-15T04:29:52.925Z,115.85
2022-09-15T04:32:37.884Z,94.47
2022-09-15T04:35:22.839Z,64.18
2022-09-15T04:38:07.730Z,62.80
2022-09-15T04:40:52.673Z,59.78
2022-09-15T04:43:38.210Z,58.40
2022-09-15T04:46:23.224Z,53.20
2022-09-15T04:49:08.557Z,55.28
2022-09-15T04:51:53.575Z,60.20
2022-09-15T04:54:38.495Z,67.13
2022-09-15T04:57:23.530Z,52.10
2022-09-15T05:00:09.097Z,75.80
2022-09-15T05:02:54.299Z,66.88
2022-09-15T05:05:40.750Z,73.93
2022-09-15T05:08:25.622Z,68.75
2022-09-15T05:11:12.375Z,52.22
2022-09-15T05:13:57.407Z,69.03
2022-09-15T05:16:42.374Z,47.92
2022-09-15T05:19:27.687Z,53.03
2022-09-15T05:22:12.984Z,61.97
2022-09-15T05:24:57.943Z,65.07
2022-09-15T05:27:42.682Z,65.32
2022-09-15T05:30:44.613Z,61.58
2022-09-15T05:33:29.685Z,76.13
2022-09-15T05:36:15.694Z,62.80
2022-09-15T05:39:01.116Z,54.75
2022-09-15T05:41:46.026Z,61.72
2022-09-15T05:44:31.704Z,66.60
2022-09-15T05:47:16.958Z,47.85
2022-09-15T05:50:01.744Z,49.28
2022-09-15T05:52:50.997Z,43.20
2022-09-15T05:55:39.193Z,46.33
2022-09-15T05:58:24.783Z,50.90
2022-09-15T06:01:14.780Z,51.00
2022-09-15T06:04:00.004Z,44.75
2022-09-15T06:06:44.813Z,46.38
2022-09-15T06:09:29.789Z,48.97
2022-09-15T06:12:14.548Z,85.30
2022-09-15T06:14:59.563Z,43.35
2022-09-15T06:17:44.778Z,43.25
2022-09-15T06:20:30.250Z,39.30
2022-09-15T06:23:15.728Z,36.78
2022-09-15T06:26:15.316Z,36.63
2022-09-15T06:29:02.721Z,36.10
2022-09-15T06:31:47.622Z,37.97
2022-09-15T06:34:32.953Z,38.58
2022-09-15T06:37:17.849Z,35.38
2022-09-15T06:40:03.243Z,32.38
2022-09-15T06:42:48.202Z,34.95
2022-09-15T06:45:32.954Z,33.03
2022-09-15T06:48:24.810Z,34.78
2022-09-15T06:51:12.227Z,55.83
2022-09-15T06:53:57.227Z,33.35
2022-09-15T06:56:42.967Z,32.40
2022-09-15T06:59:28.222Z,32.40
2022-09-15T07:02:13.151Z,30.65
2022-09-15T07:04:58.609Z,28.45
2022-09-15T07:07:43.556Z,28.73
2022-09-15T07:10:28.449Z,30.70
2022-09-15T07:13:13.386Z,27.52
2022-09-15T07:16:01.439Z,31.63
2022-09-15T07:18:48.486Z,29.27
2022-09-15T07:21:35.119Z,30.95
2022-09-15T07:24:20.343Z,25.73
2022-09-15T07:27:05.523Z,25.85
2022-09-15T07:29:51.529Z,27.67
2022-09-15T07:32:37.243Z,26.65
2022-09-15T07:35:23.317Z,23.98
2022-09-15T07:38:08.771Z,26.75
2022-09-15T07:40:54.711Z,28.40
2022-09-15T07:43:40.089Z,26.00
2022-09-15T07:46:27.345Z,21.40
2022-09-15T07:49:12.751Z,22.98
2022-09-15T07:51:57.992Z,26.17
2022-09-15T07:54:43.637Z,26.40
2022-09-15T07:57:31.289Z,22.88
2022-09-15T08:00:17.048Z,23.23
2022-09-15T08:03:02.706Z,21.52
2022-09-15T08:05:48.436Z,22.45
2022-09-15T08:08:35.335Z,26.17
2022-09-15T08:11:21.688Z,19.35
2022-09-15T08:14:06.992Z,20.95
2022-09-15T08:16:52.150Z,24.48
2022-09-15T08:19:37.171Z,18.65
2022-09-15T08:22:22.096Z,22.52
2022-09-15T08:25:08.311Z,21.90
2022-09-15T08:27:53.624Z,22.77
2022-09-15T08:30:38.878Z,19.52
2022-09-15T08:33:24.157Z,17.30
2022-09-15T08:36:10.657Z,21.17
2022-09-15T08:38:55.711Z,20.17
2022-09-15T08:41:46.449Z,17.75
2022-09-15T08:44:49.789Z,17.17
2022-09-15T08:47:43.289Z,18.73
2022-09-15T08:50:40.887Z,18.63
2022-09-15T08:53:37.727Z,18.05
2022-09-15T08:56:22.862Z,18.05
2022-09-15T08:59:13.484Z,14.52
2022-09-15T09:02:26.490Z,16.58
2022-09-15T09:05:37.765Z,14.10
2022-09-15T09:08:48.457Z,14.48
2022-09-15T09:11:46.327Z,13.85
2022-09-15T09:15:07.126Z,11.32
2022-09-15T09:18:20.160Z,15.35
2022-09-15T09:21:23.337Z,14.75
2022-09-15T09:24:16.390Z,14.05
2022-09-15T09:27:02.111Z,12.13
2022-09-15T09:29:51.990Z,12.40
2022-09-15T09:32:43.826Z,17.27
2022-09-15T09:35:31.158Z,11.60
2022-09-15T09:38:26.627Z,14.70
2022-09-15T09:41:18.654Z,13.75
2022-09-15T09:44:10.255Z,12.13
2022-09-15T09:46:55.228Z,13.27
2022-09-15T09:49:46.765Z,13.02
2022-09-15T09:52:38.062Z,12.73
2022-09-15T09:55:25.572Z,17.05
2022-09-15T09:58:19.211Z,14.82
2022-09-15T10:01:13.519Z,12.75
2022-09-15T10:04:12.241Z,12.57
2022-09-15T10:06:57.483Z,15.27
2022-09-15T10:09:52.066Z,12.82
2022-09-15T10:12:41.348Z,13.23
2022-09-15T10:15:29.087Z,13.10
2022-09-15T10:18:37.632Z,12.93
2022-09-15T10:21:24.967Z,10.75
2022-09-15T10:24:32.244Z,11.88
2022-09-15T10:27:30.866Z,13.43
2022-09-15T10:30:18.418Z,16.30
2022-09-15T10:33:24.216Z,13.05
2022-09-15T10:36:16.476Z,12.82
2022-09-15T10:39:09.566Z,17.13
2022-09-15T10:42:19.052Z,11.98
2022-09-15T10:45:16.894Z,14.20
2022-09-15T10:48:20.031Z,18.02
2022-09-15T10:51:18.218Z,11.25
2022-09-15T10:54:12.524Z,17.17
2022-09-15T10:57:08.792Z,12.70
2022-09-15T11:00:21.332Z,12.93
2022-09-15T11:03:38.049Z,10.45
2022-09-15T11:06:44.618Z,16.08
2022-09-15T11:09:44.428Z,12.18
2022-09-15T11:12:59.933Z,13.27
2022-09-15T11:15:54.199Z,15.10
2022-09-15T11:19:13.157Z,12.93
2022-09-15T11:22:08.770Z,13.07
2022-09-15T11:25:01.173Z,13.50
2022-09-15T11:27:55.275Z,9.95
2022-09-15T11:30:48.053Z,10.70
2022-09-15T11:33:46.054Z,9.18
2022-09-15T11:36:47.200Z,8.68
2022-09-15T11:39:46.285Z,15.20
2022-09-15T11:42:37.554Z,14.73
2022-09-15T11:45:29.071Z,13.75
2022-09-15T11:48:42.296Z,11.68
2022-09-15T11:51:34.618Z,12.30
2022-09-15T11:54:34.829Z,7.85
2022-09-15T11:57:26.530Z,9.60
2022-09-15T12:00:15.773Z,9.75
2022-09-15T12:03:40.138Z,10.80
2022-09-15T12:06:34.233Z,12.45
2022-09-15T12:09:20.897Z,10.38
2022-09-15T12:12:12.147Z,10.60
2022-09-15T12:14:57.803Z,13.65
2022-09-15T12:17:52.078Z,9.57
2022-09-15T12:21:13.753Z,12.85
2022-09-15T12:24:11.393Z,9.35
2022-09-15T12:27:00.220Z,8.38
2022-09-15T12:29:50.488Z,12.40
2022-09-15T12:32:35.396Z,9.02
2022-09-15T12:35:20.633Z,8.35
2022-09-15T12:38:14.007Z,6.38
2022-09-15T12:40:59.229Z,10.25
2022-09-15T12:43:57.387Z,10.63
2022-09-15T12:46:50.928Z,8.68
2022-09-15T12:49:43.305Z,8.98
2022-09-15T12:52:29.286Z,10.18
2022-09-15T12:55:36.372Z,8.18
2022-09-15T12:58:28.780Z,9.38
2022-09-15T13:01:23.236Z,6.93
2022-09-15T13:04:22.748Z,7.43
2022-09-15T13:07:16.833Z,8.27
2022-09-15T13:10:08.185Z,11.27
2022-09-15T13:13:07.303Z,6.90
2022-09-15T13:15:55.285Z,7.93
2022-09-15T13:18:43.881Z,5.28
2022-09-15T13:21:30.939Z,5.25
2022-09-15T13:24:22.561Z,6.97
2022-09-15T13:27:08.383Z,5.55
2022-09-15T13:30:22.927Z,6.47
2022-09-15T13:40:48.782Z,7.80
2022-09-15T13:43:53.920Z,7.10
2022-09-15T13:46:45.169Z,5.22
2022-09-15T13:50:05.910Z,10.50
2022-09-15T13:53:06.554Z,6.38
2022-09-15T13:55:51.998Z,10.27
2022-09-15T13:59:01.691Z,7.13
2022-09-15T14:01:47.063Z,12.38
2022-09-15T14:04:32.280Z,9.90
2022-09-15T14:07:25.000Z,11.02
2022-09-15T14:10:25.323Z,8.77
2022-09-15T14:13:14.047Z,11.45
2022-09-15T14:16:04.100Z,10.45
2022-09-15T14:18:49.878Z,6.80
2022-09-15T14:21:46.349Z,10.40
2022-09-15T14:24:32.155Z,13.02
2022-09-15T14:27:23.990Z,9.05
2022-09-15T14:30:16.604Z,11.35
2022-09-15T14:33:02.566Z,8.70
2022-09-15T14:35:47.995Z,12.52
2022-09-15T14:38:33.413Z,6.75
2022-09-15T14:41:19.147Z,13.27
2022-09-15T14:47:42.064Z,10.98
2022-09-15T14:50:32.546Z,7.95
2022-09-15T14:53:23.925Z,17.23
2022-09-15T14:56:15.303Z,13.05
2022-09-15T14:59:05.258Z,10.38
2022-09-15T15:02:04.407Z,10.13
2022-09-15T15:04:58.468Z,13.82
2022-09-15T15:07:44.380Z,9.88
2022-09-15T15:10:34.904Z,9.73
2022-09-15T15:13:21.739Z,10.20
2022-09-15T15:16:18.790Z,12.18
2022-09-15T15:19:04.298Z,11.80
2022-09-15T15:21:49.601Z,11.98
2022-09-15T15:24:34.369Z,11.75
2022-09-15T15:27:34.592Z,10.02
2022-09-15T15:30:23.134Z,11.98
2022-09-15T15:33:25.057Z,11.15
2022-09-15T15:36:10.822Z,8.48
2022-09-15T15:38:58.036Z,13.43
2022-09-15T15:41:43.384Z,10.55
2022-09-15T15:44:30.059Z,13.52
2022-09-15T15:47:14.853Z,11.52
2022-09-15T15:50:13.198Z,13.63
2022-09-15T15:53:00.301Z,11.15
2022-09-15T15:55:45.773Z,9.15
2022-09-15T15:58:31.225Z,11.82
2022-09-15T16:01:16.375Z,8.98
2022-09-15T16:04:01.883Z,9.02
2022-09-15T16:06:47.768Z,5.80
2022-09-15T16:09:39.176Z,11.65
2022-09-15T16:12:24.398Z,10.23
2022-09-15T16:15:11.874Z,9.20
2022-09-15T16:17:56.876Z,10.77
2022-09-15T16:20:42.560Z,10.35
2022-09-15T16:23:27.724Z,10.80
2022-09-15T16:26:21.798Z,9.10
2022-09-15T16:29:06.889Z,8.45
2022-09-15T16:31:52.244Z,9.55
2022-09-15T16:34:37.620Z,11.98
2022-09-15T16:37:22.884Z,10.13
2022-09-15T16:40:08.286Z,11.13
2022-09-15T16:42:53.530Z,8.82
2022-09-15T16:45:40.875Z,6.60
2022-09-15T16:48:26.426Z,7.65
2022-09-15T16:51:25.177Z,7.20
2022-09-15T16:54:18.003Z,9.02
2022-09-15T16:57:03.407Z,7.18
2022-09-15T16:59:48.536Z,7.00
2022-09-15T17:02:33.649Z,10.25
2022-09-15T17:05:32.515Z,7.00
2022-09-15T17:08:20.382Z,42.95
2022-09-15T17:11:06.312Z,15.43
2022-09-15T17:13:51.643Z,7.68
2022-09-15T17:16:37.146Z,9.25
2022-09-15T17:19:22.244Z,11.77
2022-09-15T17:22:08.355Z,8.10
2022-09-15T17:24:53.778Z,11.00
2022-09-15T17:27:38.782Z,5.00
2022-09-15T17:30:27.606Z,5.65
2022-09-15T17:33:14.466Z,6.85
2022-09-15T17:36:00.380Z,5.38
2022-09-15T17:38:45.483Z,9.43
2022-09-15T17:41:31.636Z,8.95
2022-09-15T17:44:16.453Z,8.88
2022-09-15T17:47:01.391Z,10.15
2022-09-15T17:49:46.397Z,5.80
2022-09-15T17:52:31.201Z,6.47
2022-09-15T17:55:23.038Z,6.78
2022-09-15T17:58:09.127Z,7.15
2022-09-15T18:00:54.807Z,8.30
2022-09-15T18:03:39.805Z,8.60
2022-09-15T18:06:24.817Z,7.13
2022-09-15T18:09:09.757Z,6.07
2022-09-15T18:11:54.885Z,8.77
2022-09-15T18:14:40.090Z,7.38
2022-09-15T18:17:24.962Z,7.63
2022-09-15T18:20:14.228Z,8.80
2022-09-15T18:22:59.908Z,5.90
2022-09-15T18:25:46.270Z,4.45
2022-09-15T18:28:31.423Z,6.00
2022-09-15T18:31:16.281Z,5.30
2022-09-15T18:34:01.608Z,5.00
2022-09-15T18:36:46.484Z,4.18
2022-09-15T18:39:31.978Z,7.28
2022-09-15T18:42:16.916Z,5.95
2022-09-15T18:45:02.264Z,8.38
2022-09-15T18:47:49.212Z,6.47
2022-09-15T18:50:34.433Z,9.00
2022-09-15T18:53:19.244Z,7.22
2022-09-15T18:56:15.102Z,10.02
2022-09-15T18:59:00.363Z,7.80
2022-09-15T19:01:45.516Z,7.15
2022-09-15T19:04:32.751Z,7.85
2022-09-15T19:07:20.273Z,6.70
2022-09-15T19:10:07.824Z,5.90
2022-09-15T19:12:53.835Z,11.85
2022-09-15T19:15:39.945Z,6.05
2022-09-15T19:18:25.030Z,7.15
2022-09-15T19:21:12.088Z,7.15
2022-09-15T19:23:59.325Z,6.18
2022-09-15T19:26:45.196Z,8.57
2022-09-15T19:29:30.334Z,5.25
2022-09-15T19:32:17.384Z,6.22
2022-09-15T19:35:02.493Z,6.68
2022-09-15T19:37:47.540Z,5.32
2022-09-15T19:40:32.926Z,6.68
2022-09-15T19:43:17.786Z,9.27
2022-09-15T19:46:03.173Z,4.63
2022-09-15T19:48:50.196Z,8.18
2022-09-15T19:51:35.739Z,5.00
2022-09-15T19:54:26.486Z,9.35
2022-09-15T19:57:11.388Z,6.43
2022-09-15T19:59:56.442Z,5.22
2022-09-15T20:02:42.041Z,9.13
2022-09-15T20:05:27.329Z,83.72
2022-09-15T20:08:12.234Z,13.43
2022-09-15T20:10:57.198Z,9.85
2022-09-15T20:13:42.778Z,5.45
2022-09-15T20:16:28.602Z,9.00
2022-09-15T20:19:13.966Z,6.95
2022-09-15T20:21:59.320Z,6.03
2022-09-15T20:24:44.509Z,6.05
2022-09-15T20:27:29.483Z,6.70
2022-09-15T20:30:14.925Z,9.73
2022-09-15T20:33:00.201Z,5.53
2022-09-15T20:35:45.152Z,8.60
2022-09-15T20:38:31.990Z,7.43
2022-09-15T20:41:19.254Z,10.20
2022-09-15T20:44:04.544Z,8.15
2022-09-15T20:46:49.575Z,6.20
2022-09-15T20:49:34.483Z,7.75
2022-09-15T20:52:19.506Z,6.60
2022-09-15T20:55:04.565Z,11.02
2022-09-15T20:57:49.627Z,8.60
2022-09-15T21:00:34.476Z,6.88
2022-09-15T21:03:19.477Z,9.38
2022-09-15T21:06:14.495Z,8.57
2022-09-15T21:09:00.226Z,7.82
2022-09-15T21:11:46.143Z,8.27
2022-09-15T21:14:33.240Z,8.48
2022-09-15T21:17:18.189Z,9.35
2022-09-15T21:20:03.639Z,7.45
2022-09-15T21:22:53.634Z,8.82
2022-09-15T21:25:38.747Z,6.80
2022-09-15T21:28:23.788Z,63.83
2022-09-15T21:31:11.684Z,7.43
2022-09-15T21:33:58.138Z,10.90
2022-09-15T21:36:44.373Z,9.27
2022-09-15T21:39:29.359Z,7.20
2022-09-15T21:42:14.386Z,11.15
2022-09-15T21:44:59.479Z,8.82
2022-09-15T21:47:44.653Z,7.30
2022-09-15T21:50:29.636Z,8.45
2022-09-15T21:53:14.992Z,6.13
2022-09-15T21:56:01.593Z,5.78
2022-09-15T21:58:46.952Z,8.23
2022-09-15T22:01:32.916Z,4.65
2022-09-15T22:04:17.751Z,8.85
2022-09-15T22:07:02.815Z,8.05
2022-09-15T22:09:48.193Z,8.23
2022-09-15T22:12:33.238Z,7.70
2022-09-15T22:15:18.190Z,7.60
2022-09-15T22:18:03.907Z,8.38
2022-09-15T22:20:49.140Z,5.95
2022-09-15T22:23:34.450Z,6.70
2022-09-15T22:26:22.261Z,11.15
2022-09-15T22:29:07.456Z,8.45
2022-09-15T22:31:52.706Z,10.55
2022-09-15T22:34:38.136Z,8.48
2022-09-15T22:37:22.903Z,6.00
2022-09-15T22:40:08.351Z,7.55
2022-09-15T22:42:53.719Z,13.45
2022-09-15T22:45:38.746Z,9.90
2022-09-15T22:48:24.224Z,9.35
2022-09-15T22:51:09.978Z,8.98
2022-09-15T22:53:55.408Z,9.80
2022-09-15T22:56:40.325Z,8.63
2022-09-15T22:59:25.733Z,8.50
2022-09-15T23:02:10.816Z,9.15
2022-09-15T23:04:56.124Z,10.73
2022-09-15T23:07:41.159Z,7.43
2022-09-15T23:10:26.512Z,7.28
2022-09-15T23:13:11.847Z,7.95
2022-09-15T23:15:56.838Z,11.80
2022-09-15T23:18:42.237Z,7.88
2022-09-15T23:21:27.488Z,9.27
2022-09-15T23:24:12.605Z,8.98
2022-09-15T23:26:58.234Z,7.47
2022-09-15T23:29:43.196Z,10.20
2022-09-15T23:32:28.111Z,13.82
2022-09-15T23:35:12.941Z,8.45
2022-09-15T23:37:59.136Z,8.82
2022-09-15T23:40:45.063Z,7.38
2022-09-15T23:43:30.209Z,10.77
2022-09-15T23:46:16.599Z,7.55
2022-09-15T23:49:01.626Z,11.07
2022-09-15T23:51:46.490Z,7.70
2022-09-15T23:54:31.534Z,11.82
2022-09-15T23:57:16.949Z,12.02
